sensor_id;sensor_type;location;lat;lon;timestamp;P1;durP1;ratioP1;P2;durP2;ratioP2
74044;SDS011;62389;51.412;5.436;2023-07-20T00:02:09;8.38;;;3.42;;
74044;SDS011;62389;51.412;5.436;2023-07-20T00:04:34;6.57;;;3.35;;
74044;SDS011;62389;51.412;5.436;2023-07-20T00:07:00;8.23;;;3.92;;
74044;SDS011;62389;51.412;5.436;2023-07-20T00:09:26;6.15;;;3.42;;
74044;SDS011;62389;51.412;5.436;2023-07-20T00:11:52;7.95;;;3.58;;
74044;SDS011;62389;51.412;5.436;2023-07-20T00:14:18;7.10;;;3.63;;
74044;SDS011;62389;51.412;5.436;2023-07-20T00:16:47;8.27;;;3.90;;
74044;SDS011;62389;51.412;5.436;2023-07-20T00:19:20;10.90;;;4.00;;
74044;SDS011;62389;51.412;5.436;2023-07-20T00:21:47;11.20;;;3.50;;
74044;SDS011;62389;51.412;5.436;2023-07-20T00:24:12;8.00;;;3.70;;
74044;SDS011;62389;51.412;5.436;2023-07-20T00:26:37;9.13;;;3.92;;
74044;SDS011;62389;51.412;5.436;2023-07-20T00:29:03;6.70;;;3.75;;
74044;SDS011;62389;51.412;5.436;2023-07-20T00:31:29;7.22;;;3.97;;
74044;SDS011;62389;51.412;5.436;2023-07-20T00:33:54;7.85;;;3.42;;
74044;SDS011;62389;51.412;5.436;2023-07-20T00:36:19;8.27;;;4.13;;
74044;SDS011;62389;51.412;5.436;2023-07-20T00:38:45;6.35;;;3.92;;
74044;SDS011;62389;51.412;5.436;2023-07-20T00:41:10;8.50;;;3.63;;
74044;SDS011;62389;51.412;5.436;2023-07-20T00:43:36;10.27;;;3.67;;
74044;SDS011;62389;51.412;5.436;2023-07-20T00:46:01;8.68;;;3.53;;
74044;SDS011;62389;51.412;5.436;2023-07-20T00:48:28;9.18;;;4.05;;
74044;SDS011;62389;51.412;5.436;2023-07-20T00:50:54;7.78;;;3.97;;
74044;SDS011;62389;51.412;5.436;2023-07-20T00:53:20;10.35;;;3.72;;
74044;SDS011;62389;51.412;5.436;2023-07-20T00:55:46;6.90;;;3.60;;
74044;SDS011;62389;51.412;5.436;2023-07-20T00:58:12;9.82;;;3.85;;
74044;SDS011;62389;51.412;5.436;2023-07-20T01:00:37;6.10;;;3.70;;
74044;SDS011;62389;51.412;5.436;2023-07-20T01:03:03;8.02;;;4.20;;
74044;SDS011;62389;51.412;5.436;2023-07-20T01:05:33;10.63;;;3.63;;
74044;SDS011;62389;51.412;5.436;2023-07-20T01:11:16;7.03;;;3.53;;
74044;SDS011;62389;51.412;5.436;2023-07-20T01:13:47;7.55;;;3.53;;
74044;SDS011;62389;51.412;5.436;2023-07-20T01:16:13;8.77;;;4.30;;
74044;SDS011;62389;51.412;5.436;2023-07-20T01:18:38;6.72;;;3.88;;
74044;SDS011;62389;51.412;5.436;2023-07-20T01:21:08;6.97;;;3.78;;
74044;SDS011;62389;51.412;5.436;2023-07-20T01:26:47;8.10;;;3.42;;
74044;SDS011;62389;51.412;5.436;2023-07-20T01:31:49;7.82;;;3.78;;
74044;SDS011;62389;51.412;5.436;2023-07-20T01:34:18;8.52;;;3.60;;
74044;SDS011;62389;51.412;5.436;2023-07-20T01:36:44;7.45;;;3.45;;
74044;SDS011;62389;51.412;5.436;2023-07-20T01:39:11;10.38;;;4.40;;
74044;SDS011;62389;51.412;5.436;2023-07-20T01:41:37;8.13;;;3.80;;
74044;SDS011;62389;51.412;5.436;2023-07-20T01:44:03;8.20;;;3.65;;
74044;SDS011;62389;51.412;5.436;2023-07-20T01:48:54;12.13;;;4.00;;
74044;SDS011;62389;51.412;5.436;2023-07-20T01:51:20;8.57;;;3.97;;
74044;SDS011;62389;51.412;5.436;2023-07-20T01:53:45;7.97;;;3.85;;
74044;SDS011;62389;51.412;5.436;2023-07-20T01:56:11;9.00;;;4.30;;
74044;SDS011;62389;51.412;5.436;2023-07-20T01:58:37;7.43;;;4.13;;
74044;SDS011;62389;51.412;5.436;2023-07-20T02:01:02;10.18;;;4.38;;
74044;SDS011;62389;51.412;5.436;2023-07-20T02:03:28;11.85;;;4.53;;
74044;SDS011;62389;51.412;5.436;2023-07-20T02:05:53;10.60;;;4.60;;
74044;SDS011;62389;51.412;5.436;2023-07-20T02:08:19;9.13;;;4.82;;
74044;SDS011;62389;51.412;5.436;2023-07-20T02:10:47;9.13;;;4.25;;
74044;SDS011;62389;51.412;5.436;2023-07-20T02:13:13;10.93;;;4.57;;
74044;SDS011;62389;51.412;5.436;2023-07-20T02:15:38;12.05;;;5.05;;
74044;SDS011;62389;51.412;5.436;2023-07-20T02:18:04;9.20;;;4.75;;
74044;SDS011;62389;51.412;5.436;2023-07-20T02:20:29;10.93;;;5.53;;
74044;SDS011;62389;51.412;5.436;2023-07-20T02:22:54;8.68;;;4.57;;
74044;SDS011;62389;51.412;5.436;2023-07-20T02:25:21;8.93;;;4.55;;
74044;SDS011;62389;51.412;5.436;2023-07-20T02:27:46;8.77;;;4.85;;
74044;SDS011;62389;51.412;5.436;2023-07-20T02:30:12;10.48;;;5.63;;
74044;SDS011;62389;51.412;5.436;2023-07-20T02:32:37;10.75;;;5.45;;
74044;SDS011;62389;51.412;5.436;2023-07-20T02:35:03;8.65;;;5.38;;
74044;SDS011;62389;51.412;5.436;2023-07-20T02:37:29;10.68;;;5.28;;
74044;SDS011;62389;51.412;5.436;2023-07-20T02:39:54;10.25;;;6.00;;
74044;SDS011;62389;51.412;5.436;2023-07-20T02:42:20;10.35;;;5.78;;
74044;SDS011;62389;51.412;5.436;2023-07-20T02:44:47;11.95;;;5.93;;
74044;SDS011;62389;51.412;5.436;2023-07-20T02:47:13;13.88;;;6.63;;
74044;SDS011;62389;51.412;5.436;2023-07-20T02:49:39;12.20;;;6.28;;
74044;SDS011;62389;51.412;5.436;2023-07-20T02:52:04;12.13;;;6.00;;
74044;SDS011;62389;51.412;5.436;2023-07-20T02:54:30;12.32;;;6.85;;
74044;SDS011;62389;51.412;5.436;2023-07-20T02:56:55;14.95;;;6.18;;
74044;SDS011;62389;51.412;5.436;2023-07-20T02:59:21;13.13;;;6.35;;
74044;SDS011;62389;51.412;5.436;2023-07-20T03:01:46;13.10;;;6.93;;
74044;SDS011;62389;51.412;5.436;2023-07-20T03:04:13;18.48;;;6.82;;
74044;SDS011;62389;51.412;5.436;2023-07-20T03:06:38;10.63;;;6.78;;
74044;SDS011;62389;51.412;5.436;2023-07-20T03:09:04;12.35;;;7.13;;
74044;SDS011;62389;51.412;5.436;2023-07-20T03:11:29;14.63;;;6.88;;
74044;SDS011;62389;51.412;5.436;2023-07-20T03:13:55;15.27;;;7.82;;
74044;SDS011;62389;51.412;5.436;2023-07-20T03:16:21;14.50;;;7.22;;
74044;SDS011;62389;51.412;5.436;2023-07-20T03:18:46;12.00;;;6.30;;
74044;SDS011;62389;51.412;5.436;2023-07-20T03:21:12;14.38;;;8.25;;
74044;SDS011;62389;51.412;5.436;2023-07-20T03:23:38;14.10;;;8.18;;
74044;SDS011;62389;51.412;5.436;2023-07-20T03:26:04;17.27;;;6.95;;
74044;SDS011;62389;51.412;5.436;2023-07-20T03:28:29;13.95;;;6.72;;
74044;SDS011;62389;51.412;5.436;2023-07-20T03:30:55;12.98;;;7.07;;
74044;SDS011;62389;51.412;5.436;2023-07-20T03:35:51;14.93;;;7.05;;
74044;SDS011;62389;51.412;5.436;2023-07-20T03:38:16;13.25;;;7.03;;
74044;SDS011;62389;51.412;5.436;2023-07-20T03:40:54;16.30;;;8.80;;
74044;SDS011;62389;51.412;5.436;2023-07-20T03:43:25;14.25;;;8.00;;
74044;SDS011;62389;51.412;5.436;2023-07-20T03:45:52;14.55;;;7.50;;
74044;SDS011;62389;51.412;5.436;2023-07-20T03:48:18;13.13;;;8.02;;
74044;SDS011;62389;51.412;5.436;2023-07-20T03:50:45;14.10;;;8.05;;
74044;SDS011;62389;51.412;5.436;2023-07-20T03:53:11;14.63;;;7.63;;
74044;SDS011;62389;51.412;5.436;2023-07-20T03:55:40;14.77;;;7.43;;
74044;SDS011;62389;51.412;5.436;2023-07-20T03:58:15;12.35;;;6.95;;
74044;SDS011;62389;51.412;5.436;2023-07-20T04:00:45;13.23;;;7.10;;
74044;SDS011;62389;51.412;5.436;2023-07-20T04:03:11;13.43;;;7.10;;
74044;SDS011;62389;51.412;5.436;2023-07-20T04:05:37;13.30;;;7.47;;
74044;SDS011;62389;51.412;5.436;2023-07-20T04:08:02;14.98;;;6.97;;
74044;SDS011;62389;51.412;5.436;2023-07-20T04:10:28;15.30;;;7.50;;
74044;SDS011;62389;51.412;5.436;2023-07-20T04:12:53;12.73;;;6.82;;
74044;SDS011;62389;51.412;5.436;2023-07-20T04:15:18;12.57;;;7.07;;
74044;SDS011;62389;51.412;5.436;2023-07-20T04:17:44;11.60;;;6.93;;
74044;SDS011;62389;51.412;5.436;2023-07-20T04:20:10;12.00;;;6.40;;
74044;SDS011;62389;51.412;5.436;2023-07-20T04:22:36;10.60;;;6.72;;
74044;SDS011;62389;51.412;5.436;2023-07-20T04:25:01;11.35;;;7.13;;
74044;SDS011;62389;51.412;5.436;2023-07-20T04:27:27;10.27;;;6.88;;
74044;SDS011;62389;51.412;5.436;2023-07-20T04:29:52;10.48;;;6.35;;
74044;SDS011;62389;51.412;5.436;2023-07-20T04:32:18;11.13;;;7.07;;
74044;SDS011;62389;51.412;5.436;2023-07-20T04:34:43;10.57;;;6.63;;
74044;SDS011;62389;51.412;5.436;2023-07-20T04:37:08;11.13;;;6.72;;
74044;SDS011;62389;51.412;5.436;2023-07-20T04:39:34;11.73;;;6.82;;
74044;SDS011;62389;51.412;5.436;2023-07-20T04:41:59;11.20;;;6.57;;
74044;SDS011;62389;51.412;5.436;2023-07-20T04:44:24;9.18;;;6.25;;
74044;SDS011;62389;51.412;5.436;2023-07-20T04:46:50;9.25;;;5.78;;
74044;SDS011;62389;51.412;5.436;2023-07-20T04:49:15;9.73;;;5.90;;
74044;SDS011;62389;51.412;5.436;2023-07-20T04:51:41;9.25;;;5.00;;
74044;SDS011;62389;51.412;5.436;2023-07-20T04:54:06;8.32;;;5.20;;
74044;SDS011;62389;51.412;5.436;2023-07-20T04:56:31;9.07;;;5.43;;
74044;SDS011;62389;51.412;5.436;2023-07-20T04:58:58;9.00;;;5.68;;
74044;SDS011;62389;51.412;5.436;2023-07-20T05:01:23;9.32;;;5.97;;
74044;SDS011;62389;51.412;5.436;2023-07-20T05:03:49;9.18;;;5.35;;
74044;SDS011;62389;51.412;5.436;2023-07-20T05:06:14;9.35;;;5.85;;
74044;SDS011;62389;51.412;5.436;2023-07-20T05:08:40;8.77;;;4.90;;
74044;SDS011;62389;51.412;5.436;2023-07-20T05:11:05;6.32;;;4.28;;
74044;SDS011;62389;51.412;5.436;2023-07-20T05:13:32;7.90;;;4.78;;
74044;SDS011;62389;51.412;5.436;2023-07-20T05:15:57;6.85;;;4.32;;
74044;SDS011;62389;51.412;5.436;2023-07-20T05:18:22;7.03;;;4.22;;
74044;SDS011;62389;51.412;5.436;2023-07-20T05:20:48;6.75;;;3.90;;
74044;SDS011;62389;51.412;5.436;2023-07-20T05:23:13;9.45;;;4.68;;
74044;SDS011;62389;51.412;5.436;2023-07-20T05:25:39;6.55;;;3.53;;
74044;SDS011;62389;51.412;5.436;2023-07-20T05:28:05;8.65;;;2.92;;
74044;SDS011;62389;51.412;5.436;2023-07-20T05:30:31;5.72;;;3.40;;
74044;SDS011;62389;51.412;5.436;2023-07-20T05:32:56;4.47;;;3.22;;
74044;SDS011;62389;51.412;5.436;2023-07-20T05:35:22;8.18;;;3.70;;
74044;SDS011;62389;51.412;5.436;2023-07-20T05:37:47;5.22;;;3.03;;
74044;SDS011;62389;51.412;5.436;2023-07-20T05:40:13;6.05;;;3.45;;
74044;SDS011;62389;51.412;5.436;2023-07-20T05:45:05;5.83;;;3.33;;
74044;SDS011;62389;51.412;5.436;2023-07-20T05:47:30;5.70;;;3.08;;
74044;SDS011;62389;51.412;5.436;2023-07-20T05:49:57;4.60;;;2.80;;
74044;SDS011;62389;51.412;5.436;2023-07-20T05:52:22;6.35;;;3.35;;
74044;SDS011;62389;51.412;5.436;2023-07-20T05:54:48;6.05;;;3.40;;
74044;SDS011;62389;51.412;5.436;2023-07-20T05:57:13;8.07;;;4.20;;
74044;SDS011;62389;51.412;5.436;2023-07-20T05:59:38;7.38;;;3.97;;
74044;SDS011;62389;51.412;5.436;2023-07-20T06:02:05;9.32;;;4.63;;
74044;SDS011;62389;51.412;5.436;2023-07-20T06:04:32;7.57;;;4.05;;
74044;SDS011;62389;51.412;5.436;2023-07-20T06:06:57;5.03;;;3.65;;
74044;SDS011;62389;51.412;5.436;2023-07-20T06:09:22;6.72;;;4.50;;
74044;SDS011;62389;51.412;5.436;2023-07-20T06:11:48;6.53;;;4.25;;
74044;SDS011;62389;51.412;5.436;2023-07-20T06:14:13;7.28;;;4.40;;
74044;SDS011;62389;51.412;5.436;2023-07-20T06:16:39;6.93;;;4.20;;
74044;SDS011;62389;51.412;5.436;2023-07-20T06:19:04;6.75;;;3.72;;
74044;SDS011;62389;51.412;5.436;2023-07-20T06:21:29;6.35;;;4.03;;
74044;SDS011;62389;51.412;5.436;2023-07-20T06:23:55;7.88;;;4.53;;
74044;SDS011;62389;51.412;5.436;2023-07-20T06:26:20;7.95;;;4.35;;
74044;SDS011;62389;51.412;5.436;2023-07-20T06:28:46;7.75;;;4.57;;
74044;SDS011;62389;51.412;5.436;2023-07-20T06:31:11;7.50;;;3.85;;
74044;SDS011;62389;51.412;5.436;2023-07-20T06:33:36;6.97;;;3.83;;
74044;SDS011;62389;51.412;5.436;2023-07-20T06:36:02;6.80;;;3.97;;
74044;SDS011;62389;51.412;5.436;2023-07-20T06:38:28;5.13;;;2.90;;
74044;SDS011;62389;51.412;5.436;2023-07-20T06:40:54;4.40;;;2.58;;
74044;SDS011;62389;51.412;5.436;2023-07-20T06:43:19;2.47;;;1.55;;
74044;SDS011;62389;51.412;5.436;2023-07-20T06:45:45;4.13;;;1.80;;
74044;SDS011;62389;51.412;5.436;2023-07-20T06:48:17;2.90;;;1.33;;
74044;SDS011;62389;51.412;5.436;2023-07-20T06:50:42;2.33;;;1.23;;
74044;SDS011;62389;51.412;5.436;2023-07-20T06:53:08;2.63;;;1.40;;
74044;SDS011;62389;51.412;5.436;2023-07-20T06:55:33;2.40;;;1.23;;
74044;SDS011;62389;51.412;5.436;2023-07-20T06:57:58;1.77;;;1.10;;
74044;SDS011;62389;51.412;5.436;2023-07-20T07:00:24;2.17;;;1.23;;
74044;SDS011;62389;51.412;5.436;2023-07-20T07:02:49;2.33;;;1.42;;
74044;SDS011;62389;51.412;5.436;2023-07-20T07:05:14;3.47;;;1.90;;
74044;SDS011;62389;51.412;5.436;2023-07-20T07:07:40;3.75;;;1.85;;
74044;SDS011;62389;51.412;5.436;2023-07-20T07:10:06;4.97;;;2.08;;
74044;SDS011;62389;51.412;5.436;2023-07-20T07:12:32;3.00;;;1.90;;
74044;SDS011;62389;51.412;5.436;2023-07-20T07:14:57;2.88;;;1.95;;
74044;SDS011;62389;51.412;5.436;2023-07-20T07:17:23;3.25;;;2.17;;
74044;SDS011;62389;51.412;5.436;2023-07-20T07:19:48;3.45;;;1.92;;
74044;SDS011;62389;51.412;5.436;2023-07-20T07:22:14;3.08;;;1.63;;
74044;SDS011;62389;51.412;5.436;2023-07-20T07:24:39;3.92;;;1.70;;
74044;SDS011;62389;51.412;5.436;2023-07-20T07:27:07;2.35;;;1.65;;
74044;SDS011;62389;51.412;5.436;2023-07-20T07:29:33;3.55;;;1.55;;
74044;SDS011;62389;51.412;5.436;2023-07-20T07:31:59;3.75;;;1.90;;
74044;SDS011;62389;51.412;5.436;2023-07-20T07:34:24;4.22;;;1.83;;
74044;SDS011;62389;51.412;5.436;2023-07-20T07:36:50;3.33;;;1.77;;
74044;SDS011;62389;51.412;5.436;2023-07-20T07:39:15;3.05;;;1.52;;
74044;SDS011;62389;51.412;5.436;2023-07-20T07:41:41;2.08;;;1.33;;
74044;SDS011;62389;51.412;5.436;2023-07-20T07:44:06;1.98;;;1.45;;
74044;SDS011;62389;51.412;5.436;2023-07-20T07:46:32;2.63;;;1.40;;
74044;SDS011;62389;51.412;5.436;2023-07-20T07:48:57;2.90;;;1.73;;
74044;SDS011;62389;51.412;5.436;2023-07-20T07:51:23;2.80;;;1.15;;
74044;SDS011;62389;51.412;5.436;2023-07-20T07:53:48;2.53;;;1.30;;
74044;SDS011;62389;51.412;5.436;2023-07-20T07:56:14;2.55;;;1.13;;
74044;SDS011;62389;51.412;5.436;2023-07-20T07:58:39;2.28;;;1.30;;
74044;SDS011;62389;51.412;5.436;2023-07-20T08:01:05;3.35;;;0.82;;
74044;SDS011;62389;51.412;5.436;2023-07-20T08:03:31;3.35;;;1.10;;
74044;SDS011;62389;51.412;5.436;2023-07-20T08:05:56;2.88;;;1.00;;
74044;SDS011;62389;51.412;5.436;2023-07-20T08:08:22;2.03;;;0.98;;
74044;SDS011;62389;51.412;5.436;2023-07-20T08:10:47;2.10;;;0.98;;
74044;SDS011;62389;51.412;5.436;2023-07-20T08:13:13;2.53;;;1.40;;
74044;SDS011;62389;51.412;5.436;2023-07-20T08:15:39;3.20;;;1.30;;
74044;SDS011;62389;51.412;5.436;2023-07-20T08:18:05;2.40;;;1.25;;
74044;SDS011;62389;51.412;5.436;2023-07-20T08:20:31;2.15;;;1.20;;
74044;SDS011;62389;51.412;5.436;2023-07-20T08:22:57;2.63;;;1.13;;
74044;SDS011;62389;51.412;5.436;2023-07-20T08:25:24;1.52;;;0.90;;
74044;SDS011;62389;51.412;5.436;2023-07-20T08:27:50;1.98;;;1.00;;
74044;SDS011;62389;51.412;5.436;2023-07-20T08:30:15;3.15;;;1.25;;
74044;SDS011;62389;51.412;5.436;2023-07-20T08:32:41;3.30;;;1.00;;
74044;SDS011;62389;51.412;5.436;2023-07-20T08:35:06;2.75;;;1.05;;
74044;SDS011;62389;51.412;5.436;2023-07-20T08:37:32;2.33;;;1.00;;
74044;SDS011;62389;51.412;5.436;2023-07-20T08:39:57;2.58;;;0.90;;
74044;SDS011;62389;51.412;5.436;2023-07-20T08:42:23;3.40;;;1.13;;
74044;SDS011;62389;51.412;5.436;2023-07-20T08:44:48;1.80;;;0.98;;
74044;SDS011;62389;51.412;5.436;2023-07-20T08:47:17;3.40;;;1.20;;
74044;SDS011;62389;51.412;5.436;2023-07-20T08:49:46;2.30;;;1.00;;
74044;SDS011;62389;51.412;5.436;2023-07-20T08:52:13;1.80;;;1.00;;
74044;SDS011;62389;51.412;5.436;2023-07-20T08:54:39;2.72;;;1.10;;
74044;SDS011;62389;51.412;5.436;2023-07-20T08:57:05;1.40;;;0.75;;
74044;SDS011;62389;51.412;5.436;2023-07-20T08:59:32;1.63;;;0.93;;
74044;SDS011;62389;51.412;5.436;2023-07-20T09:02:01;2.28;;;0.90;;
74044;SDS011;62389;51.412;5.436;2023-07-20T09:04:29;1.77;;;0.90;;
74044;SDS011;62389;51.412;5.436;2023-07-20T09:06:55;2.75;;;0.90;;
74044;SDS011;62389;51.412;5.436;2023-07-20T09:09:22;1.45;;;0.80;;
74044;SDS011;62389;51.412;5.436;2023-07-20T09:11:47;2.17;;;0.80;;
74044;SDS011;62389;51.412;5.436;2023-07-20T09:14:14;2.97;;;0.85;;
74044;SDS011;62389;51.412;5.436;2023-07-20T09:19:15;2.13;;;0.70;;
74044;SDS011;62389;51.412;5.436;2023-07-20T09:21:43;1.58;;;0.70;;
74044;SDS011;62389;51.412;5.436;2023-07-20T09:24:10;1.27;;;0.65;;
74044;SDS011;62389;51.412;5.436;2023-07-20T09:26:40;2.50;;;0.80;;
74044;SDS011;62389;51.412;5.436;2023-07-20T09:29:07;1.77;;;0.80;;
74044;SDS011;62389;51.412;5.436;2023-07-20T09:31:34;1.30;;;0.70;;
74044;SDS011;62389;51.412;5.436;2023-07-20T09:33:59;1.48;;;0.73;;
74044;SDS011;62389;51.412;5.436;2023-07-20T09:36:26;3.38;;;1.10;;
74044;SDS011;62389;51.412;5.436;2023-07-20T09:38:52;1.20;;;0.73;;
74044;SDS011;62389;51.412;5.436;2023-07-20T09:41:17;2.00;;;0.80;;
74044;SDS011;62389;51.412;5.436;2023-07-20T09:43:46;1.25;;;0.60;;
74044;SDS011;62389;51.412;5.436;2023-07-20T09:46:11;2.03;;;0.70;;
74044;SDS011;62389;51.412;5.436;2023-07-20T09:48:37;2.10;;;0.85;;
74044;SDS011;62389;51.412;5.436;2023-07-20T09:51:03;2.00;;;0.93;;
74044;SDS011;62389;51.412;5.436;2023-07-20T09:53:31;1.30;;;0.70;;
74044;SDS011;62389;51.412;5.436;2023-07-20T09:55:58;1.98;;;1.00;;
74044;SDS011;62389;51.412;5.436;2023-07-20T09:58:24;2.78;;;1.23;;
74044;SDS011;62389;51.412;5.436;2023-07-20T10:00:51;2.63;;;1.02;;
74044;SDS011;62389;51.412;5.436;2023-07-20T10:03:28;1.30;;;0.73;;
74044;SDS011;62389;51.412;5.436;2023-07-20T10:06:00;1.70;;;0.85;;
74044;SDS011;62389;51.412;5.436;2023-07-20T10:08:30;2.20;;;1.02;;
74044;SDS011;62389;51.412;5.436;2023-07-20T10:10:59;2.38;;;1.10;;
74044;SDS011;62389;51.412;5.436;2023-07-20T10:13:27;1.70;;;0.98;;
74044;SDS011;62389;51.412;5.436;2023-07-20T10:15:57;2.35;;;1.00;;
74044;SDS011;62389;51.412;5.436;2023-07-20T10:21:33;1.60;;;0.75;;
74044;SDS011;62389;51.412;5.436;2023-07-20T10:24:02;1.70;;;0.90;;
74044;SDS011;62389;51.412;5.436;2023-07-20T10:28:54;2.50;;;1.10;;
74044;SDS011;62389;51.412;5.436;2023-07-20T10:31:22;1.60;;;0.88;;
74044;SDS011;62389;51.412;5.436;2023-07-20T10:33:48;1.52;;;1.00;;
74044;SDS011;62389;51.412;5.436;2023-07-20T10:36:15;1.48;;;0.82;;
74044;SDS011;62389;51.412;5.436;2023-07-20T10:41:21;2.00;;;0.90;;
74044;SDS011;62389;51.412;5.436;2023-07-20T10:43:55;1.98;;;0.80;;
74044;SDS011;62389;51.412;5.436;2023-07-20T10:49:07;2.28;;;1.05;;
74044;SDS011;62389;51.412;5.436;2023-07-20T10:51:41;1.00;;;0.63;;
74044;SDS011;62389;51.412;5.436;2023-07-20T10:56:41;1.83;;;0.80;;
74044;SDS011;62389;51.412;5.436;2023-07-20T10:59:17;1.25;;;0.70;;
74044;SDS011;62389;51.412;5.436;2023-07-20T11:02:05;1.17;;;0.65;;
74044;SDS011;62389;51.412;5.436;2023-07-20T11:09:33;2.13;;;0.90;;
74044;SDS011;62389;51.412;5.436;2023-07-20T11:12:13;2.35;;;0.90;;
74044;SDS011;62389;51.412;5.436;2023-07-20T11:14:40;3.03;;;0.90;;
74044;SDS011;62389;51.412;5.436;2023-07-20T11:17:13;2.40;;;0.90;;
74044;SDS011;62389;51.412;5.436;2023-07-20T11:19:40;1.67;;;0.93;;
74044;SDS011;62389;51.412;5.436;2023-07-20T11:22:06;1.73;;;1.00;;
74044;SDS011;62389;51.412;5.436;2023-07-20T11:24:39;2.85;;;0.93;;
74044;SDS011;62389;51.412;5.436;2023-07-20T11:27:05;1.25;;;0.73;;
74044;SDS011;62389;51.412;5.436;2023-07-20T11:29:31;2.15;;;0.90;;
74044;SDS011;62389;51.412;5.436;2023-07-20T11:31:56;1.77;;;0.90;;
74044;SDS011;62389;51.412;5.436;2023-07-20T11:34:23;1.95;;;0.88;;
74044;SDS011;62389;51.412;5.436;2023-07-20T11:36:50;2.30;;;1.27;;
74044;SDS011;62389;51.412;5.436;2023-07-20T11:39:17;1.52;;;0.80;;
74044;SDS011;62389;51.412;5.436;2023-07-20T11:41:47;2.67;;;0.90;;
74044;SDS011;62389;51.412;5.436;2023-07-20T11:44:15;1.40;;;0.88;;
74044;SDS011;62389;51.412;5.436;2023-07-20T11:46:42;1.63;;;0.80;;
74044;SDS011;62389;51.412;5.436;2023-07-20T11:49:09;2.67;;;1.23;;
74044;SDS011;62389;51.412;5.436;2023-07-20T11:51:35;1.52;;;1.02;;
74044;SDS011;62389;51.412;5.436;2023-07-20T11:54:03;1.60;;;0.95;;
74044;SDS011;62389;51.412;5.436;2023-07-20T11:56:30;1.52;;;1.02;;
74044;SDS011;62389;51.412;5.436;2023-07-20T11:58:56;1.70;;;1.10;;
74044;SDS011;62389;51.412;5.436;2023-07-20T12:01:24;1.55;;;1.02;;
74044;SDS011;62389;51.412;5.436;2023-07-20T12:03:54;2.05;;;1.00;;
74044;SDS011;62389;51.412;5.436;2023-07-20T12:06:24;4.10;;;1.50;;
74044;SDS011;62389;51.412;5.436;2023-07-20T12:08:54;2.10;;;1.00;;
74044;SDS011;62389;51.412;5.436;2023-07-20T12:11:36;1.70;;;1.20;;
74044;SDS011;62389;51.412;5.436;2023-07-20T12:14:03;2.38;;;0.93;;
74044;SDS011;62389;51.412;5.436;2023-07-20T12:16:31;4.50;;;0.77;;
74044;SDS011;62389;51.412;5.436;2023-07-20T12:19:00;2.67;;;0.90;;
74044;SDS011;62389;51.412;5.436;2023-07-20T12:21:26;1.42;;;0.90;;
74044;SDS011;62389;51.412;5.436;2023-07-20T12:23:51;1.90;;;1.20;;
74044;SDS011;62389;51.412;5.436;2023-07-20T12:26:16;3.25;;;0.90;;
74044;SDS011;62389;51.412;5.436;2023-07-20T12:28:42;3.58;;;1.85;;
74044;SDS011;62389;51.412;5.436;2023-07-20T12:31:08;2.83;;;1.02;;
74044;SDS011;62389;51.412;5.436;2023-07-20T12:33:34;2.65;;;0.90;;
74044;SDS011;62389;51.412;5.436;2023-07-20T12:36:00;1.80;;;0.93;;
74044;SDS011;62389;51.412;5.436;2023-07-20T12:38:26;2.63;;;1.13;;
74044;SDS011;62389;51.412;5.436;2023-07-20T12:40:52;1.83;;;1.08;;
74044;SDS011;62389;51.412;5.436;2023-07-20T12:43:20;1.60;;;0.90;;
74044;SDS011;62389;51.412;5.436;2023-07-20T12:45:45;1.63;;;1.10;;
74044;SDS011;62389;51.412;5.436;2023-07-20T12:48:10;2.08;;;1.10;;
74044;SDS011;62389;51.412;5.436;2023-07-20T12:50:36;1.98;;;1.05;;
74044;SDS011;62389;51.412;5.436;2023-07-20T12:53:01;2.67;;;1.60;;
74044;SDS011;62389;51.412;5.436;2023-07-20T12:55:28;2.15;;;1.60;;
74044;SDS011;62389;51.412;5.436;2023-07-20T12:57:54;4.13;;;1.77;;
74044;SDS011;62389;51.412;5.436;2023-07-20T13:00:20;2.08;;;1.55;;
74044;SDS011;62389;51.412;5.436;2023-07-20T13:02:48;1.83;;;1.30;;
74044;SDS011;62389;51.412;5.436;2023-07-20T13:05:13;2.80;;;1.50;;
74044;SDS011;62389;51.412;5.436;2023-07-20T13:07:40;2.80;;;2.00;;
74044;SDS011;62389;51.412;5.436;2023-07-20T13:10:06;3.72;;;1.80;;
74044;SDS011;62389;51.412;5.436;2023-07-20T13:12:33;3.13;;;1.90;;
74044;SDS011;62389;51.412;5.436;2023-07-20T13:15:01;1.95;;;1.52;;
74044;SDS011;62389;51.412;5.436;2023-07-20T13:17:30;2.13;;;1.60;;
74044;SDS011;62389;51.412;5.436;2023-07-20T13:19:56;2.67;;;1.80;;
74044;SDS011;62389;51.412;5.436;2023-07-20T13:22:22;2.03;;;1.48;;
74044;SDS011;62389;51.412;5.436;2023-07-20T13:24:48;2.35;;;1.65;;
74044;SDS011;62389;51.412;5.436;2023-07-20T13:27:14;3.53;;;1.90;;
74044;SDS011;62389;51.412;5.436;2023-07-20T13:29:40;4.93;;;1.60;;
74044;SDS011;62389;51.412;5.436;2023-07-20T13:32:06;2.58;;;2.00;;
74044;SDS011;62389;51.412;5.436;2023-07-20T13:34:32;4.70;;;2.22;;
74044;SDS011;62389;51.412;5.436;2023-07-20T13:36:57;3.22;;;2.00;;
74044;SDS011;62389;51.412;5.436;2023-07-20T13:39:23;2.13;;;1.92;;
74044;SDS011;62389;51.412;5.436;2023-07-20T13:41:51;2.63;;;2.10;;
74044;SDS011;62389;51.412;5.436;2023-07-20T13:44:16;2.35;;;1.75;;
74044;SDS011;62389;51.412;5.436;2023-07-20T13:46:41;3.38;;;2.13;;
74044;SDS011;62389;51.412;5.436;2023-07-20T13:49:07;2.58;;;2.38;;
74044;SDS011;62389;51.412;5.436;2023-07-20T13:51:32;4.95;;;2.63;;
74044;SDS011;62389;51.412;5.436;2023-07-20T13:53:57;2.45;;;2.05;;
74044;SDS011;62389;51.412;5.436;2023-07-20T13:56:23;3.50;;;2.05;;
74044;SDS011;62389;51.412;5.436;2023-07-20T13:58:50;4.28;;;2.50;;
74044;SDS011;62389;51.412;5.436;2023-07-20T14:01:15;2.65;;;1.80;;
74044;SDS011;62389;51.412;5.436;2023-07-20T14:03:42;3.78;;;2.00;;
74044;SDS011;62389;51.412;5.436;2023-07-20T14:06:08;2.40;;;1.98;;
74044;SDS011;62389;51.412;5.436;2023-07-20T14:08:33;2.85;;;2.20;;
74044;SDS011;62389;51.412;5.436;2023-07-20T14:10:59;2.65;;;2.03;;
74044;SDS011;62389;51.412;5.436;2023-07-20T14:13:24;3.83;;;2.05;;
74044;SDS011;62389;51.412;5.436;2023-07-20T14:15:49;2.80;;;1.95;;
74044;SDS011;62389;51.412;5.436;2023-07-20T14:18:15;4.75;;;2.17;;
74044;SDS011;62389;51.412;5.436;2023-07-20T14:20:41;3.63;;;2.03;;
74044;SDS011;62389;51.412;5.436;2023-07-20T14:23:06;4.80;;;1.85;;
74044;SDS011;62389;51.412;5.436;2023-07-20T14:25:32;3.15;;;2.30;;
74044;SDS011;62389;51.412;5.436;2023-07-20T14:30:23;3.92;;;2.28;;
74044;SDS011;62389;51.412;5.436;2023-07-20T14:32:49;3.70;;;2.40;;
74044;SDS011;62389;51.412;5.436;2023-07-20T14:35:14;4.35;;;2.35;;
74044;SDS011;62389;51.412;5.436;2023-07-20T14:37:40;2.42;;;1.92;;
74044;SDS011;62389;51.412;5.436;2023-07-20T14:40:05;2.55;;;2.05;;
74044;SDS011;62389;51.412;5.436;2023-07-20T14:42:31;2.20;;;1.98;;
74044;SDS011;62389;51.412;5.436;2023-07-20T14:44:57;5.65;;;3.25;;
74044;SDS011;62389;51.412;5.436;2023-07-20T14:47:23;3.65;;;2.30;;
74044;SDS011;62389;51.412;5.436;2023-07-20T14:49:48;2.67;;;2.05;;
74044;SDS011;62389;51.412;5.436;2023-07-20T14:52:14;2.70;;;2.13;;
74044;SDS011;62389;51.412;5.436;2023-07-20T14:54:39;3.70;;;2.40;;
74044;SDS011;62389;51.412;5.436;2023-07-20T14:57:04;3.45;;;2.35;;
74044;SDS011;62389;51.412;5.436;2023-07-20T14:59:38;2.45;;;1.85;;
74044;SDS011;62389;51.412;5.436;2023-07-20T15:02:03;2.92;;;2.05;;
74044;SDS011;62389;51.412;5.436;2023-07-20T15:04:29;2.92;;;2.00;;
74044;SDS011;62389;51.412;5.436;2023-07-20T15:06:54;2.97;;;1.83;;
74044;SDS011;62389;51.412;5.436;2023-07-20T15:09:21;2.70;;;1.52;;
74044;SDS011;62389;51.412;5.436;2023-07-20T15:11:47;4.43;;;2.00;;
74044;SDS011;62389;51.412;5.436;2023-07-20T15:14:12;3.60;;;1.67;;
74044;SDS011;62389;51.412;5.436;2023-07-20T15:16:38;2.05;;;1.58;;
74044;SDS011;62389;51.412;5.436;2023-07-20T15:19:03;3.58;;;1.60;;
74044;SDS011;62389;51.412;5.436;2023-07-20T15:21:29;2.95;;;1.80;;